createdAt,value
2018-10-12T00:00:24.878Z,1009.42
2018-10-12T00:01:24.777Z,1009.45
2018-10-12T00:02:24.774Z,1009.44
2018-10-12T00:03:24.757Z,1009.44
2018-10-12T00:04:24.732Z,1009.42
2018-10-12T00:05:24.712Z,1009.44
2018-10-12T00:06:24.697Z,1009.48
2018-10-12T00:07:24.688Z,1009.46
2018-10-12T00:08:24.663Z,1009.47
2018-10-12T00:09:24.645Z,1009.48
2018-10-12T00:10:24.631Z,1009.50
2018-10-12T00:11:24.633Z,1009.45
2018-10-12T00:12:24.599Z,1009.50
2018-10-12T00:13:24.581Z,1009.48
2018-10-12T00:14:24.568Z,1009.49
2018-10-12T00:15:24.549Z,1009.47
2018-10-12T00:16:24.533Z,1009.49
2018-10-12T00:17:24.519Z,1009.44
2018-10-12T00:18:24.497Z,1009.45
2018-10-12T00:19:24.482Z,1009.48
2018-10-12T00:20:24.467Z,1009.49
2018-10-12T00:21:24.449Z,1009.51
2018-10-12T00:22:24.434Z,1009.51
2018-10-12T00:23:24.426Z,1009.48
2018-10-12T00:24:24.440Z,1009.49
2018-10-12T00:25:24.382Z,1009.46
2018-10-12T00:26:24.385Z,1009.47
2018-10-12T00:27:24.408Z,1009.51
2018-10-12T00:28:24.332Z,1009.49
2018-10-12T00:29:24.315Z,1009.52
2018-10-12T00:30:24.304Z,1009.51
2018-10-12T00:31:24.286Z,1009.56
2018-10-12T00:32:24.266Z,1009.48
2018-10-12T00:33:24.249Z,1009.53
2018-10-12T00:34:24.231Z,1009.50
2018-10-12T00:35:24.214Z,1009.50
2018-10-12T00:36:24.201Z,1009.54
2018-10-12T00:37:24.181Z,1009.56
2018-10-12T00:38:24.167Z,1009.57
2018-10-12T00:39:24.159Z,1009.61
2018-10-12T00:40:24.136Z,1009.60
2018-10-12T00:41:24.119Z,1009.60
2018-10-12T00:42:24.099Z,1009.58
2018-10-12T00:43:24.080Z,1009.62
2018-10-12T00:44:24.067Z,1009.62
2018-10-12T00:45:24.048Z,1009.62
2018-10-12T00:46:24.089Z,1009.58
2018-10-12T00:47:24.018Z,1009.61
2018-10-12T00:48:23.998Z,1009.58
2018-10-12T00:49:24.012Z,1009.59
2018-10-12T00:50:23.965Z,1009.53
2018-10-12T00:51:23.953Z,1009.61
2018-10-12T00:52:23.939Z,1009.54
2018-10-12T00:53:23.917Z,1009.54
2018-10-12T00:54:24.027Z,1009.52
2018-10-12T00:55:23.881Z,1009.52
2018-10-12T00:56:23.865Z,1009.52
2018-10-12T00:57:23.897Z,1009.51
2018-10-12T00:58:23.830Z,1009.55
2018-10-12T00:59:23.817Z,1009.51
2018-10-12T01:00:23.797Z,1009.55
2018-10-12T01:01:23.789Z,1009.57
2018-10-12T01:02:23.764Z,1009.56
2018-10-12T01:03:23.754Z,1009.53
2018-10-12T01:04:23.772Z,1009.57
2018-10-12T01:05:23.714Z,1009.57
2018-10-12T01:06:23.705Z,1009.58
2018-10-12T01:07:23.689Z,1009.58
2018-10-12T01:08:23.663Z,1009.64
2018-10-12T01:09:23.646Z,1009.59
2018-10-12T01:10:23.637Z,1009.61
2018-10-12T01:11:23.613Z,1009.61
2018-10-12T01:12:23.597Z,1009.54
2018-10-12T01:13:23.691Z,1009.58
2018-10-12T01:14:23.563Z,1009.55
2018-10-12T01:15:23.548Z,1009.52
2018-10-12T01:16:23.550Z,1009.46
2018-10-12T01:17:23.513Z,1009.45
2018-10-12T01:18:23.494Z,1009.46
2018-10-12T01:19:23.478Z,1009.37
2018-10-12T01:20:23.462Z,1009.32
2018-10-12T01:21:23.445Z,1009.33
2018-10-12T01:22:23.427Z,1009.34
2018-10-12T01:23:23.413Z,1009.34
2018-10-12T01:24:23.392Z,1009.39
2018-10-12T01:25:23.384Z,1009.41
2018-10-12T01:26:23.368Z,1009.39
2018-10-12T01:27:23.343Z,1009.41
2018-10-12T01:28:23.325Z,1009.44
2018-10-12T01:29:23.312Z,1009.44
2018-10-12T01:30:23.293Z,1009.51
2018-10-12T01:31:23.274Z,1009.48
2018-10-12T01:32:23.378Z,1009.49
2018-10-12T01:33:23.242Z,1009.49
2018-10-12T01:34:23.224Z,1009.47
2018-10-12T01:35:23.238Z,1009.44
2018-10-12T01:36:23.191Z,1009.45
2018-10-12T01:37:23.176Z,1009.47
2018-10-12T01:38:23.155Z,1009.43
2018-10-12T01:39:23.149Z,1009.47
2018-10-12T01:40:23.126Z,1009.46
2018-10-12T01:41:23.117Z,1009.47
2018-10-12T01:42:23.091Z,1009.49
2018-10-12T01:43:23.123Z,1009.55
2018-10-12T01:44:23.056Z,1009.56
2018-10-12T01:45:23.039Z,1009.59
2018-10-12T01:46:23.037Z,1009.57
2018-10-12T01:47:23.006Z,1009.64
2018-10-12T01:48:22.989Z,1009.64
2018-10-12T01:49:22.971Z,1009.62
2018-10-12T01:50:22.972Z,1009.68
2018-10-12T01:51:22.942Z,1009.66
2018-10-12T01:52:22.921Z,1009.70
2018-10-12T01:53:22.912Z,1009.66
2018-10-12T01:54:22.890Z,1009.61
2018-10-12T01:55:22.871Z,1009.68
2018-10-12T01:56:22.860Z,1009.63
2018-10-12T01:57:22.834Z,1009.62
2018-10-12T01:58:22.832Z,1009.66
2018-10-12T01:59:22.868Z,1009.63
2018-10-12T02:00:22.792Z,1009.62
2018-10-12T02:01:22.770Z,1009.61
2018-10-12T02:02:22.757Z,1009.63
2018-10-12T02:03:22.734Z,1009.63
2018-10-12T02:04:22.719Z,1009.60
2018-10-12T02:05:22.700Z,1009.67
2018-10-12T02:06:22.692Z,1009.70
2018-10-12T02:07:22.669Z,1009.70
2018-10-12T02:08:22.654Z,1009.70
2018-10-12T02:09:22.633Z,1009.71
2018-10-12T02:10:22.619Z,1009.73
2018-10-12T02:11:22.598Z,1009.67
2018-10-12T02:12:22.583Z,1009.67
2018-10-12T02:13:22.564Z,1009.66
2018-10-12T02:14:22.545Z,1009.66
2018-10-12T02:15:22.531Z,1009.68
2018-10-12T02:16:22.514Z,1009.65
2018-10-12T02:17:22.498Z,1009.67
2018-10-12T02:18:22.496Z,1009.63
2018-10-12T02:19:22.464Z,1009.69
2018-10-12T02:20:22.445Z,1009.70
2018-10-12T02:21:22.444Z,1009.69
2018-10-12T02:22:22.412Z,1009.71
2018-10-12T02:23:22.395Z,1009.69
2018-10-12T02:24:22.377Z,1009.69
2018-10-12T02:25:22.360Z,1009.70
2018-10-12T02:26:22.347Z,1009.66
2018-10-12T02:27:22.326Z,1009.65
2018-10-12T02:28:22.308Z,1009.65
2018-10-12T02:29:22.293Z,1009.56
2018-10-12T02:30:22.278Z,1009.55
2018-10-12T02:31:22.263Z,1009.62
2018-10-12T02:32:22.240Z,1009.62
2018-10-12T02:33:22.223Z,1009.67
2018-10-12T02:34:22.308Z,1009.64
2018-10-12T02:35:22.200Z,1009.65
2018-10-12T02:36:22.178Z,1009.68
2018-10-12T02:37:22.172Z,1009.62
2018-10-12T02:38:22.142Z,1009.63
2018-10-12T02:39:22.134Z,1009.68
2018-10-12T02:40:22.116Z,1009.65
2018-10-12T02:41:22.086Z,1009.67
2018-10-12T02:42:22.223Z,1009.69
2018-10-12T02:43:22.053Z,1009.72
2018-10-12T02:44:22.037Z,1009.72
2018-10-12T02:45:22.021Z,1009.71
2018-10-12T02:46:22.022Z,1009.71
2018-10-12T02:47:21.985Z,1009.73
2018-10-12T02:48:22.028Z,1009.68
2018-10-12T02:49:21.958Z,1009.68
2018-10-12T02:50:21.936Z,1009.71
2018-10-12T02:51:21.916Z,1009.73
2018-10-12T02:52:21.894Z,1009.71
2018-10-12T02:53:21.880Z,1009.75
2018-10-12T02:54:21.867Z,1009.77
2018-10-12T02:55:21.846Z,1009.79
2018-10-12T02:56:21.827Z,1009.81
2018-10-12T02:57:21.809Z,1009.83
2018-10-12T02:58:21.791Z,1009.80
2018-10-12T02:59:21.775Z,1009.83
2018-10-12T03:00:21.759Z,1009.90
2018-10-12T03:01:21.866Z,1009.95
2018-10-12T03:02:21.723Z,1009.98
2018-10-12T03:03:21.707Z,1009.96
2018-10-12T03:04:21.719Z,1010.02
2018-10-12T03:05:21.671Z,1009.99
2018-10-12T03:06:21.652Z,1010.00
2018-10-12T03:07:21.685Z,1010.04
2018-10-12T03:08:21.628Z,1009.98
2018-10-12T03:09:21.597Z,1009.99
2018-10-12T03:10:21.584Z,1010.09
2018-10-12T03:11:21.565Z,1010.11
2018-10-12T03:12:21.549Z,1010.08
2018-10-12T03:13:21.528Z,1010.10
2018-10-12T03:14:21.513Z,1010.14
2018-10-12T03:15:21.497Z,1010.15
2018-10-12T03:16:21.483Z,1010.14
2018-10-12T03:17:21.459Z,1010.15
2018-10-12T03:18:21.444Z,1010.16
2018-10-12T03:19:21.426Z,1010.19
2018-10-12T03:20:21.633Z,1010.21
2018-10-12T03:21:21.390Z,1010.22
2018-10-12T03:22:21.373Z,1010.21
2018-10-12T03:23:21.367Z,1010.23
2018-10-12T03:24:21.338Z,1010.24
2018-10-12T03:25:21.327Z,1010.25
2018-10-12T03:26:21.311Z,1010.25
2018-10-12T03:27:21.286Z,1010.28
2018-10-12T03:28:21.304Z,1010.30
2018-10-12T03:29:21.253Z,1010.29
2018-10-12T03:30:21.232Z,1010.29
2018-10-12T03:31:21.343Z,1010.32
2018-10-12T03:32:21.201Z,1010.34
2018-10-12T03:33:21.181Z,1010.38
2018-10-12T03:34:21.217Z,1010.41
2018-10-12T03:35:21.147Z,1010.44
2018-10-12T03:36:21.147Z,1010.44
2018-10-12T03:37:21.172Z,1010.48
2018-10-12T03:38:21.095Z,1010.50
2018-10-12T03:39:21.086Z,1010.57
2018-10-12T03:40:21.072Z,1010.54
2018-10-12T03:41:21.044Z,1010.55
2018-10-12T03:42:21.027Z,1010.54
2018-10-12T03:43:21.020Z,1010.56
2018-10-12T03:44:20.991Z,1010.55
2018-10-12T03:45:20.972Z,1010.56
2018-10-12T03:46:20.957Z,1010.58
2018-10-12T03:47:20.941Z,1010.61
2018-10-12T03:48:20.930Z,1010.63
2018-10-12T03:49:20.925Z,1010.63
2018-10-12T03:50:21.041Z,1010.65
2018-10-12T03:51:20.871Z,1010.67
2018-10-12T03:52:20.854Z,1010.71
2018-10-12T03:53:20.841Z,1010.67
2018-10-12T03:54:20.823Z,1010.69
2018-10-12T03:55:20.809Z,1010.72
2018-10-12T03:56:20.788Z,1010.67
2018-10-12T03:57:20.763Z,1010.68
2018-10-12T03:58:20.752Z,1010.70
2018-10-12T03:59:20.748Z,1010.71
2018-10-12T04:00:20.715Z,1010.69
2018-10-12T04:01:20.699Z,1010.73
2018-10-12T04:02:20.679Z,1010.73
2018-10-12T04:03:20.659Z,1010.77
2018-10-12T04:04:20.644Z,1010.73
2018-10-12T04:05:20.628Z,1010.77
2018-10-12T04:06:20.612Z,1010.77
2018-10-12T04:07:20.597Z,1010.80
2018-10-12T04:08:20.588Z,1010.81
2018-10-12T04:09:20.593Z,1010.83
2018-10-12T04:10:20.541Z,1010.82
2018-10-12T04:11:20.519Z,1010.83
2018-10-12T04:12:20.552Z,1010.89
2018-10-12T04:13:20.489Z,1010.94
2018-10-12T04:14:20.474Z,1010.92
2018-10-12T04:15:20.454Z,1010.96
2018-10-12T04:16:20.437Z,1010.98
2018-10-12T04:17:20.538Z,1010.98
2018-10-12T04:18:20.423Z,1010.98
2018-10-12T04:19:20.384Z,1010.95
2018-10-12T04:20:20.373Z,1011.02
2018-10-12T04:21:20.348Z,1011.07
2018-10-12T04:22:20.326Z,1011.07
2018-10-12T04:23:20.312Z,1011.10
2018-10-12T04:24:20.292Z,1011.13
2018-10-12T04:25:20.274Z,1011.19
2018-10-12T04:26:20.311Z,1011.24
2018-10-12T04:27:20.244Z,1011.18
2018-10-12T04:28:20.222Z,1011.19
2018-10-12T04:29:20.207Z,1011.22
2018-10-12T04:30:20.188Z,1011.23
2018-10-12T04:31:20.178Z,1011.29
2018-10-12T04:32:20.166Z,1011.27
2018-10-12T04:33:20.134Z,1011.30
2018-10-12T04:34:20.126Z,1011.30
2018-10-12T04:35:20.107Z,1011.26
2018-10-12T04:36:20.081Z,1011.22
2018-10-12T04:37:20.063Z,1011.20
2018-10-12T04:38:20.044Z,1011.21
2018-10-12T04:39:20.029Z,1011.16
2018-10-12T04:40:20.011Z,1011.14
2018-10-12T04:41:19.993Z,1011.10
2018-10-12T04:42:19.992Z,1011.14
2018-10-12T04:43:19.962Z,1011.15
2018-10-12T04:44:19.940Z,1011.22
2018-10-12T04:45:19.927Z,1011.21
2018-10-12T04:46:19.917Z,1011.24
2018-10-12T04:47:19.910Z,1011.31
2018-10-12T04:48:19.969Z,1011.32
2018-10-12T04:49:19.852Z,1011.40
2018-10-12T04:50:19.835Z,1011.38
2018-10-12T04:51:19.817Z,1011.32
2018-10-12T04:52:19.801Z,1011.30
2018-10-12T04:53:19.779Z,1011.33
2018-10-12T04:54:19.761Z,1011.32
2018-10-12T04:55:19.779Z,1011.37
2018-10-12T04:56:19.745Z,1011.38
2018-10-12T04:57:19.709Z,1011.46
2018-10-12T04:58:19.697Z,1011.47
2018-10-12T04:59:19.676Z,1011.50
2018-10-12T05:00:19.657Z,1011.47
2018-10-12T05:01:19.640Z,1011.41
2018-10-12T05:02:19.621Z,1011.43
2018-10-12T05:03:19.614Z,1011.44
2018-10-12T05:04:19.587Z,1011.46
2018-10-12T05:05:19.572Z,1011.50
2018-10-12T05:06:19.552Z,1011.48
2018-10-12T05:07:19.536Z,1011.52
2018-10-12T05:08:19.520Z,1011.52
2018-10-12T05:09:19.499Z,1011.54
2018-10-12T05:10:19.497Z,1011.58
2018-10-12T05:11:19.463Z,1011.50
2018-10-12T05:12:19.460Z,1011.48
2018-10-12T05:13:19.435Z,1011.50
2018-10-12T05:14:19.412Z,1011.51
2018-10-12T05:15:19.551Z,1011.50
2018-10-12T05:16:19.377Z,1011.48
2018-10-12T05:17:19.374Z,1011.50
2018-10-12T05:18:19.340Z,1011.45
2018-10-12T05:19:19.330Z,1011.51
2018-10-12T05:20:19.340Z,1011.50
2018-10-12T05:21:19.301Z,1011.50
2018-10-12T05:22:19.484Z,1011.50
2018-10-12T05:23:19.256Z,1011.53
2018-10-12T05:24:19.234Z,1011.55
2018-10-12T05:25:19.217Z,1011.58
2018-10-12T05:26:19.205Z,1011.53
2018-10-12T05:27:19.180Z,1011.59
2018-10-12T05:28:19.178Z,1011.67
2018-10-12T05:29:19.145Z,1011.72
2018-10-12T05:30:19.253Z,1011.72
2018-10-12T05:31:19.114Z,1011.71
2018-10-12T05:32:19.092Z,1011.70
2018-10-12T05:33:19.081Z,1011.73
2018-10-12T05:34:19.058Z,1011.74
2018-10-12T05:35:19.047Z,1011.79
2018-10-12T05:36:19.023Z,1011.81
2018-10-12T05:37:19.008Z,1011.87
2018-10-12T05:38:18.986Z,1011.88
2018-10-12T05:39:18.968Z,1011.89
2018-10-12T05:40:18.955Z,1011.90
2018-10-12T05:41:18.934Z,1011.90
2018-10-12T05:42:18.936Z,1011.92
2018-10-12T05:43:18.996Z,1011.98
2018-10-12T05:44:18.882Z,1011.96
2018-10-12T05:45:19.013Z,1011.98
2018-10-12T05:46:18.847Z,1011.99
2018-10-12T05:47:18.829Z,1012.02
2018-10-12T05:48:18.822Z,1012.05
2018-10-12T05:49:18.793Z,1012.08
2018-10-12T05:50:18.776Z,1012.07
2018-10-12T05:51:18.760Z,1012.08
2018-10-12T05:52:18.743Z,1012.11
2018-10-12T05:53:18.730Z,1012.16
2018-10-12T05:54:18.703Z,1012.18
2018-10-12T05:55:18.688Z,1012.13
2018-10-12T05:56:18.670Z,1012.15
2018-10-12T05:57:18.653Z,1012.18
2018-10-12T05:58:18.635Z,1012.21
2018-10-12T05:59:18.616Z,1012.19
2018-10-12T06:00:18.607Z,1012.24
2018-10-12T06:01:18.611Z,1012.23
2018-10-12T06:02:18.565Z,1012.24
2018-10-12T06:03:18.548Z,1012.22
2018-10-12T06:04:18.543Z,1012.26
2018-10-12T06:05:18.516Z,1012.25
2018-10-12T06:06:18.494Z,1012.29
2018-10-12T06:07:18.539Z,1012.32
2018-10-12T06:08:18.476Z,1012.35
2018-10-12T06:09:18.489Z,1012.37
2018-10-12T06:10:18.429Z,1012.44
2018-10-12T06:11:18.462Z,1012.44
2018-10-12T06:12:18.389Z,1012.47
2018-10-12T06:13:18.375Z,1012.48
2018-10-12T06:14:18.355Z,1012.55
2018-10-12T06:15:18.372Z,1012.59
2018-10-12T06:16:18.330Z,1012.63
2018-10-12T06:17:18.304Z,1012.65
2018-10-12T06:18:18.283Z,1012.64
2018-10-12T06:19:18.277Z,1012.68
2018-10-12T06:20:18.254Z,1012.73
2018-10-12T06:21:18.235Z,1012.71
2018-10-12T06:22:18.228Z,1012.71
2018-10-12T06:23:18.249Z,1012.71
2018-10-12T06:24:18.184Z,1012.74
2018-10-12T06:25:18.165Z,1012.79
2018-10-12T06:26:18.168Z,1012.75
2018-10-12T06:27:18.144Z,1012.78
2018-10-12T06:28:18.113Z,1012.81
2018-10-12T06:29:18.095Z,1012.83
2018-10-12T06:30:18.076Z,1012.82
2018-10-12T06:31:18.164Z,1012.86
2018-10-12T06:32:18.046Z,1012.91
2018-10-12T06:33:18.026Z,1012.90
2018-10-12T06:34:18.007Z,1012.91
2018-10-12T06:35:17.997Z,1012.92
2018-10-12T06:36:17.982Z,1012.98
2018-10-12T06:37:17.962Z,1012.98
2018-10-12T06:38:17.951Z,1012.98
2018-10-12T06:39:17.922Z,1012.98
2018-10-12T06:40:17.903Z,1013.04
2018-10-12T06:41:17.954Z,1013.07
2018-10-12T06:42:17.891Z,1013.09
2018-10-12T06:43:17.856Z,1013.10
2018-10-12T06:44:17.843Z,1013.14
2018-10-12T06:45:17.819Z,1013.18
2018-10-12T06:46:17.802Z,1013.16
2018-10-12T06:47:17.792Z,1013.16
2018-10-12T06:48:17.768Z,1013.16
2018-10-12T06:49:17.749Z,1013.15
2018-10-12T06:50:17.734Z,1013.15
2018-10-12T06:51:17.713Z,1013.14
2018-10-12T06:52:17.700Z,1013.17
2018-10-12T06:53:17.823Z,1013.15
2018-10-12T06:54:17.662Z,1013.17
2018-10-12T06:55:17.645Z,1013.18
2018-10-12T06:56:17.638Z,1013.17
2018-10-12T06:57:17.621Z,1013.20
2018-10-12T06:58:17.596Z,1013.20
2018-10-12T06:59:17.580Z,1013.20
2018-10-12T07:00:17.560Z,1013.23
2018-10-12T07:01:17.547Z,1013.28
2018-10-12T07:02:17.524Z,1013.28
2018-10-12T07:03:17.527Z,1013.30
2018-10-12T07:04:17.497Z,1013.32
2018-10-12T07:05:17.482Z,1013.31
2018-10-12T07:06:17.458Z,1013.37
2018-10-12T07:07:17.449Z,1013.37
2018-10-12T07:08:17.421Z,1013.38
2018-10-12T07:09:17.406Z,1013.40
2018-10-12T07:10:17.386Z,1013.41
2018-10-12T07:11:17.377Z,1013.45
2018-10-12T07:12:17.365Z,1013.47
2018-10-12T07:13:17.345Z,1013.43
2018-10-12T07:14:17.333Z,1013.42
2018-10-12T07:15:17.309Z,1013.46
2018-10-12T07:16:17.297Z,1013.46
2018-10-12T07:17:17.275Z,1013.52
2018-10-12T07:18:17.250Z,1013.48
2018-10-12T07:19:17.269Z,1013.48
2018-10-12T07:20:17.215Z,1013.54
2018-10-12T07:21:17.199Z,1013.53
2018-10-12T07:22:17.182Z,1013.58
2018-10-12T07:23:17.165Z,1013.61
2018-10-12T07:24:17.147Z,1013.59
2018-10-12T07:25:17.131Z,1013.60
2018-10-12T07:26:17.129Z,1013.59
2018-10-12T07:27:17.098Z,1013.63
2018-10-12T07:28:17.081Z,1013.63
2018-10-12T07:29:17.064Z,1013.64
2018-10-12T07:30:17.066Z,1013.68
2018-10-12T07:31:17.077Z,1013.68
2018-10-12T07:32:17.019Z,1013.66
2018-10-12T07:33:16.994Z,1013.74
2018-10-12T07:34:16.985Z,1013.73
2018-10-12T07:35:16.965Z,1013.68
2018-10-12T07:36:16.946Z,1013.69
2018-10-12T07:37:16.984Z,1013.65
2018-10-12T07:38:17.066Z,1013.69
2018-10-12T07:39:16.896Z,1013.74
2018-10-12T07:40:16.887Z,1013.78
2018-10-12T07:41:16.861Z,1013.77
2018-10-12T07:42:16.929Z,1013.78
2018-10-12T07:43:16.837Z,1013.83
2018-10-12T07:44:16.811Z,1013.81
2018-10-12T07:45:16.821Z,1013.83
2018-10-12T07:46:16.779Z,1013.86
2018-10-12T07:47:16.836Z,1013.86
2018-10-12T07:48:16.893Z,1013.85
2018-10-12T07:49:16.728Z,1013.91
2018-10-12T07:50:16.714Z,1013.89
2018-10-12T07:51:16.695Z,1013.89
2018-10-12T07:52:16.679Z,1013.90
2018-10-12T07:53:16.723Z,1013.86
2018-10-12T07:54:16.645Z,1013.89
2018-10-12T07:55:16.628Z,1013.92
2018-10-12T07:56:16.625Z,1013.90
2018-10-12T07:57:16.592Z,1013.91
2018-10-12T07:58:16.585Z,1013.92
2018-10-12T07:59:16.576Z,1013.91
2018-10-12T08:00:16.676Z,1013.92
2018-10-12T08:01:16.536Z,1013.93
2018-10-12T08:02:16.874Z,1013.92
2018-10-12T08:03:16.498Z,1013.98
2018-10-12T08:04:16.477Z,1014.01
2018-10-12T08:05:16.462Z,1014.02
2018-10-12T08:06:16.557Z,1014.03
2018-10-12T08:07:16.451Z,1014.04
2018-10-12T08:08:16.412Z,1014.05
2018-10-12T08:09:16.496Z,1014.08
2018-10-12T08:10:16.378Z,1014.07
2018-10-12T08:11:16.369Z,1014.09
2018-10-12T08:12:16.360Z,1014.14
2018-10-12T08:13:16.341Z,1014.20
2018-10-12T08:14:16.437Z,1014.18
2018-10-12T08:15:16.453Z,1014.21
2018-10-12T08:16:16.287Z,1014.22
2018-10-12T08:17:16.271Z,1014.29
2018-10-12T08:18:16.253Z,1014.28
2018-10-12T08:19:16.236Z,1014.29
2018-10-12T08:20:16.234Z,1014.28
2018-10-12T08:21:16.204Z,1014.32
2018-10-12T08:22:16.190Z,1014.33
2018-10-12T08:23:16.168Z,1014.33
2018-10-12T08:24:16.153Z,1014.36
2018-10-12T08:25:16.130Z,1014.39
2018-10-12T08:26:16.117Z,1014.34
2018-10-12T08:27:16.111Z,1014.35
2018-10-12T08:28:16.177Z,1014.36
2018-10-12T08:29:16.074Z,1014.35
2018-10-12T08:30:16.053Z,1014.38
2018-10-12T08:31:16.092Z,1014.43
2018-10-12T08:32:16.032Z,1014.44
2018-10-12T08:33:16.003Z,1014.48
2018-10-12T08:34:15.989Z,1014.41
2018-10-12T08:35:15.971Z,1014.46
2018-10-12T08:36:15.967Z,1014.44
2018-10-12T08:37:15.942Z,1014.43
2018-10-12T08:38:15.935Z,1014.41
2018-10-12T08:39:15.915Z,1014.42
2018-10-12T08:40:15.895Z,1014.43
2018-10-12T08:41:15.880Z,1014.45
2018-10-12T08:42:15.859Z,1014.43
2018-10-12T08:43:15.857Z,1014.50
2018-10-12T08:44:15.830Z,1014.49
2018-10-12T08:45:15.812Z,1014.51
2018-10-12T08:46:15.806Z,1014.55
2018-10-12T08:47:15.781Z,1014.57
2018-10-12T08:48:15.769Z,1014.58
2018-10-12T08:49:15.757Z,1014.64
2018-10-12T08:50:15.734Z,1014.63
2018-10-12T08:51:15.726Z,1014.61
2018-10-12T08:52:15.705Z,1014.68
2018-10-12T08:53:15.690Z,1014.64
2018-10-12T08:54:15.678Z,1014.61
2018-10-12T08:55:15.679Z,1014.66
2018-10-12T08:56:15.650Z,1014.65
2018-10-12T08:57:15.631Z,1014.70
2018-10-12T08:58:15.661Z,1014.69
2018-10-12T08:59:15.606Z,1014.68
2018-10-12T09:00:15.589Z,1014.68
2018-10-12T09:01:15.574Z,1014.71
2018-10-12T09:02:15.558Z,1014.81
2018-10-12T09:03:15.559Z,1014.79
2018-10-12T09:04:15.531Z,1014.84
2018-10-12T09:05:15.513Z,1014.91
2018-10-12T09:06:15.497Z,1014.88
2018-10-12T09:07:15.498Z,1014.93
2018-10-12T09:08:15.468Z,1014.89
2018-10-12T09:09:15.453Z,1014.95
2018-10-12T09:10:15.449Z,1015.01
2018-10-12T09:11:15.425Z,1014.95
2018-10-12T09:12:15.416Z,1014.97
2018-10-12T09:13:15.423Z,1014.90
2018-10-12T09:14:16.600Z,1014.92
2018-10-12T09:15:16.787Z,1014.92
2018-10-12T09:16:15.411Z,1014.93
2018-10-12T09:17:15.341Z,1014.92
2018-10-12T09:18:15.335Z,1014.97
2018-10-12T09:19:15.318Z,1014.90
2018-10-12T09:20:15.351Z,1014.88
2018-10-12T09:21:15.290Z,1015.10
2018-10-12T09:22:15.285Z,1015.11
2018-10-12T09:23:15.269Z,1015.01
2018-10-12T09:24:15.257Z,1015.04
2018-10-12T09:25:15.237Z,1015.20
2018-10-12T09:27:37.557Z,1015.02
2018-10-12T09:28:36.734Z,1015.13
2018-10-12T09:29:34.085Z,1014.97
2018-10-12T09:30:34.154Z,1015.14
2018-10-12T09:31:34.069Z,1014.97
2018-10-12T09:32:34.045Z,1015.12
2018-10-12T09:33:34.035Z,1014.94
2018-10-12T09:34:34.034Z,1015.08
2018-10-12T09:35:34.202Z,1015.01
2018-10-12T09:36:34.062Z,1014.98
2018-10-12T09:37:33.985Z,1015.07
2018-10-12T09:38:33.991Z,1014.99
2018-10-12T09:40:18.543Z,1015.02
2018-10-12T09:41:18.524Z,1015.21
2018-10-12T09:42:18.515Z,1015.10
2018-10-12T09:43:18.570Z,1015.11
2018-10-12T09:44:18.489Z,1015.06
2018-10-12T09:45:18.485Z,1015.15
2018-10-12T09:46:18.469Z,1015.05
2018-10-12T09:47:18.457Z,1015.10
2018-10-12T09:48:18.453Z,1015.12
2018-10-12T09:49:18.446Z,1015.09
2018-10-12T09:51:22.836Z,1015.12
2018-10-12T09:52:22.823Z,1015.07
2018-10-12T09:53:22.811Z,1015.10
2018-10-12T09:59:05.059Z,1015.04
2018-10-12T10:00:05.040Z,1015.04
2018-10-12T10:01:05.029Z,1014.98
2018-10-12T10:11:08.482Z,1014.96
2018-10-12T10:12:07.262Z,1014.94
2018-10-12T10:13:10.075Z,1014.95
2018-10-12T10:17:53.676Z,1014.93
2018-10-12T10:18:20.456Z,1014.97
2018-10-12T10:19:20.578Z,1014.98
2018-10-12T10:20:20.634Z,1014.95
2018-10-12T10:21:53.636Z,1014.97
2018-10-12T10:22:20.418Z,1014.96
2018-10-12T10:23:20.405Z,1014.96
2018-10-12T10:24:20.400Z,1015.00
2018-10-12T10:25:20.383Z,1015.00
2018-10-12T10:26:20.371Z,1015.04
2018-10-12T10:27:20.774Z,1015.03
2018-10-12T10:28:20.353Z,1014.97
2018-10-12T10:29:20.464Z,1015.04
2018-10-12T10:30:20.336Z,1015.03
2018-10-12T10:31:20.326Z,1015.00
2018-10-12T10:32:20.342Z,1015.00
2018-10-12T10:33:20.308Z,1015.03
2018-10-12T10:34:20.300Z,1015.01
2018-10-12T10:35:20.294Z,1015.00
2018-10-12T10:36:20.331Z,1015.00
2018-10-12T10:37:20.458Z,1014.99
2018-10-12T10:38:20.263Z,1014.95
2018-10-12T10:39:20.253Z,1014.97
2018-10-12T10:40:20.299Z,1014.92
2018-10-12T10:41:20.237Z,1014.88
2018-10-12T10:42:20.225Z,1014.83
2018-10-12T10:43:20.216Z,1014.88
2018-10-12T10:44:20.208Z,1014.93
2018-10-12T10:45:20.206Z,1014.83
2018-10-12T10:46:20.263Z,1014.82
2018-10-12T10:47:20.185Z,1014.82
2018-10-12T10:48:20.179Z,1014.78
2018-10-12T10:49:20.166Z,1014.77
2018-10-12T10:50:20.154Z,1014.68
2018-10-12T10:51:20.149Z,1014.69
2018-10-12T10:52:20.146Z,1014.73
2018-10-12T10:53:20.130Z,1014.68
2018-10-12T10:54:20.117Z,1014.70
2018-10-12T10:55:20.115Z,1014.68
2018-10-12T10:56:20.116Z,1014.70
2018-10-12T10:57:20.092Z,1014.68
2018-10-12T10:58:20.089Z,1014.72
2018-10-12T10:59:20.076Z,1014.67
2018-10-12T11:00:20.069Z,1014.73
2018-10-12T11:01:20.062Z,1014.66
2018-10-12T11:02:20.044Z,1014.69
2018-10-12T11:03:20.050Z,1014.66
2018-10-12T11:04:20.035Z,1014.71
2018-10-12T11:05:20.023Z,1014.74
2018-10-12T11:06:20.084Z,1014.70
2018-10-12T11:07:20.012Z,1014.69
2018-10-12T11:08:19.988Z,1014.58
2018-10-12T11:09:19.985Z,1014.61
2018-10-12T11:10:19.971Z,1014.66
2018-10-12T11:11:19.970Z,1014.65
2018-10-12T11:12:20.047Z,1014.60
2018-10-12T11:13:20.073Z,1014.64
2018-10-12T11:14:19.942Z,1014.69
2018-10-12T11:15:19.938Z,1014.67
2018-10-12T11:16:19.920Z,1014.69
2018-10-12T11:17:19.915Z,1014.68
2018-10-12T11:18:19.908Z,1014.68
2018-10-12T11:19:19.897Z,1014.67
2018-10-12T11:20:19.887Z,1014.64
2018-10-12T11:21:19.876Z,1014.57
2018-10-12T11:22:19.856Z,1014.56
2018-10-12T11:23:19.851Z,1014.64
2018-10-12T11:24:19.884Z,1014.62
2018-10-12T11:25:19.834Z,1014.60
2018-10-12T11:26:19.837Z,1014.53
2018-10-12T11:27:19.809Z,1014.60
2018-10-12T11:28:19.816Z,1014.59
2018-10-12T11:29:19.797Z,1014.55
2018-10-12T11:30:19.854Z,1014.56
2018-10-12T11:31:19.772Z,1014.51
2018-10-12T11:32:19.767Z,1014.58
2018-10-12T11:33:19.764Z,1014.66
2018-10-12T11:34:19.752Z,1014.60
2018-10-12T11:35:19.742Z,1014.56
2018-10-12T11:36:19.721Z,1014.59
2018-10-12T11:37:19.711Z,1014.58
2018-10-12T11:38:19.754Z,1014.60
2018-10-12T11:39:19.704Z,1014.58
2018-10-12T11:40:19.682Z,1014.52
2018-10-12T11:41:19.676Z,1014.57
2018-10-12T11:42:19.659Z,1014.62
2018-10-12T11:43:19.652Z,1014.58
2018-10-12T11:44:19.639Z,1014.58
2018-10-12T11:45:19.680Z,1014.54
2018-10-12T11:46:19.625Z,1014.58
2018-10-12T11:47:19.609Z,1014.59
2018-10-12T11:48:19.606Z,1014.56
2018-10-12T11:49:19.607Z,1014.48
2018-10-12T11:50:19.594Z,1014.53
2018-10-12T11:51:19.567Z,1014.52
2018-10-12T11:52:19.862Z,1014.55
2018-10-12T11:53:19.548Z,1014.57
2018-10-12T11:54:19.552Z,1014.57
2018-10-12T11:55:19.529Z,1014.56
2018-10-12T11:56:19.533Z,1014.56
2018-10-12T11:57:19.506Z,1014.55
2018-10-12T11:58:19.520Z,1014.59
2018-10-12T11:59:19.508Z,1014.55
2018-10-12T12:00:19.475Z,1014.56
2018-10-12T12:01:19.466Z,1014.54
2018-10-12T12:02:19.519Z,1014.55
2018-10-12T12:03:19.444Z,1014.60
2018-10-12T12:04:19.427Z,1014.53
2018-10-12T12:05:19.429Z,1014.53
2018-10-12T12:06:19.417Z,1014.52
2018-10-12T12:07:19.453Z,1014.55
2018-10-12T12:08:19.405Z,1014.56
2018-10-12T12:09:19.384Z,1014.55
2018-10-12T12:10:19.368Z,1014.60
2018-10-12T12:11:19.355Z,1014.59
2018-10-12T12:12:19.345Z,1014.63
2018-10-12T12:13:19.438Z,1014.61
2018-10-12T12:14:19.347Z,1014.57
2018-10-12T12:15:19.307Z,1014.57
2018-10-12T12:16:19.296Z,1014.54
2018-10-12T12:17:19.291Z,1014.53
2018-10-12T12:18:19.273Z,1014.51
2018-10-12T12:19:19.302Z,1014.46
2018-10-12T12:20:19.248Z,1014.55
2018-10-12T12:21:19.239Z,1014.55
2018-10-12T12:22:19.235Z,1014.50
2018-10-12T12:23:19.213Z,1014.55
2018-10-12T12:24:19.211Z,1014.52
2018-10-12T12:25:19.195Z,1014.48